sensor_id;sensor_type;location;lat;lon;timestamp;temperature;humidity
11079;DHT22;5592;49.234;7.268;2023-10-19T00:00:40;13.00;99.90
11079;DHT22;5592;49.234;7.268;2023-10-19T00:03:10;13.00;99.90
11079;DHT22;5592;49.234;7.268;2023-10-19T00:05:37;13.00;99.90
11079;DHT22;5592;49.234;7.268;2023-10-19T00:08:04;13.10;99.90
11079;DHT22;5592;49.234;7.268;2023-10-19T00:10:51;13.00;99.90
11079;DHT22;5592;49.234;7.268;2023-10-19T00:13:49;13.10;99.90
11079;DHT22;5592;49.234;7.268;2023-10-19T00:16:16;13.10;99.90
11079;DHT22;5592;49.234;7.268;2023-10-19T00:18:48;13.10;99.90
11079;DHT22;5592;49.234;7.268;2023-10-19T00:21:19;13.10;99.90
11079;DHT22;5592;49.234;7.268;2023-10-19T00:23:51;13.10;99.90
11079;DHT22;5592;49.234;7.268;2023-10-19T00:26:20;13.10;99.90
11079;DHT22;5592;49.234;7.268;2023-10-19T00:28:49;13.10;99.90
11079;DHT22;5592;49.234;7.268;2023-10-19T00:31:18;13.10;99.90
11079;DHT22;5592;49.234;7.268;2023-10-19T00:33:46;13.10;99.90
11079;DHT22;5592;49.234;7.268;2023-10-19T00:36:12;13.10;99.90
11079;DHT22;5592;49.234;7.268;2023-10-19T00:38:41;13.10;99.90
11079;DHT22;5592;49.234;7.268;2023-10-19T00:41:21;13.10;99.90
11079;DHT22;5592;49.234;7.268;2023-10-19T00:43:57;13.10;99.90
11079;DHT22;5592;49.234;7.268;2023-10-19T00:46:49;13.10;99.90
11079;DHT22;5592;49.234;7.268;2023-10-19T00:49:26;13.10;99.90
11079;DHT22;5592;49.234;7.268;2023-10-19T00:51:53;13.10;99.90
11079;DHT22;5592;49.234;7.268;2023-10-19T00:54:31;13.20;99.90
11079;DHT22;5592;49.234;7.268;2023-10-19T00:56:59;13.10;99.90
11079;DHT22;5592;49.234;7.268;2023-10-19T00:59:31;13.10;99.90
11079;DHT22;5592;49.234;7.268;2023-10-19T01:02:01;13.10;99.90
11079;DHT22;5592;49.234;7.268;2023-10-19T01:04:51;13.00;99.90
11079;DHT22;5592;49.234;7.268;2023-10-19T01:07:32;13.00;99.90
11079;DHT22;5592;49.234;7.268;2023-10-19T01:10:06;12.90;99.90
11079;DHT22;5592;49.234;7.268;2023-10-19T01:12:37;12.90;99.90
11079;DHT22;5592;49.234;7.268;2023-10-19T01:15:09;12.90;99.90
11079;DHT22;5592;49.234;7.268;2023-10-19T01:17:43;13.10;99.90
11079;DHT22;5592;49.234;7.268;2023-10-19T01:20:11;13.30;99.90
11079;DHT22;5592;49.234;7.268;2023-10-19T01:22:50;13.40;99.90
11079;DHT22;5592;49.234;7.268;2023-10-19T01:25:20;13.50;99.90
11079;DHT22;5592;49.234;7.268;2023-10-19T01:27:52;13.50;99.90
11079;DHT22;5592;49.234;7.268;2023-10-19T01:30:23;13.70;99.90
11079;DHT22;5592;49.234;7.268;2023-10-19T01:32:48;13.70;99.90
11079;DHT22;5592;49.234;7.268;2023-10-19T01:35:14;13.70;99.90
11079;DHT22;5592;49.234;7.268;2023-10-19T01:37:39;13.80;99.90
11079;DHT22;5592;49.234;7.268;2023-10-19T01:40:06;13.80;99.90
11079;DHT22;5592;49.234;7.268;2023-10-19T01:42:32;13.80;99.90
11079;DHT22;5592;49.234;7.268;2023-10-19T01:44:57;13.70;99.90
11079;DHT22;5592;49.234;7.268;2023-10-19T01:47:23;13.90;99.90
11079;DHT22;5592;49.234;7.268;2023-10-19T01:49:50;13.90;99.90
11079;DHT22;5592;49.234;7.268;2023-10-19T01:52:17;13.90;99.90
11079;DHT22;5592;49.234;7.268;2023-10-19T01:54:43;13.90;99.90
11079;DHT22;5592;49.234;7.268;2023-10-19T01:57:08;13.90;99.90
11079;DHT22;5592;49.234;7.268;2023-10-19T01:59:35;14.00;99.90
11079;DHT22;5592;49.234;7.268;2023-10-19T02:02:00;14.10;99.90
11079;DHT22;5592;49.234;7.268;2023-10-19T02:04:27;14.10;99.90
11079;DHT22;5592;49.234;7.268;2023-10-19T02:06:53;14.10;99.90
11079;DHT22;5592;49.234;7.268;2023-10-19T02:09:19;14.10;99.90
11079;DHT22;5592;49.234;7.268;2023-10-19T02:11:55;14.00;99.90
11079;DHT22;5592;49.234;7.268;2023-10-19T02:14:25;13.90;99.90
11079;DHT22;5592;49.234;7.268;2023-10-19T02:16:52;14.10;99.90
11079;DHT22;5592;49.234;7.268;2023-10-19T02:19:23;14.30;99.90
11079;DHT22;5592;49.234;7.268;2023-10-19T02:21:50;14.30;99.90
11079;DHT22;5592;49.234;7.268;2023-10-19T02:24:17;14.30;99.90
11079;DHT22;5592;49.234;7.268;2023-10-19T02:26:44;14.30;99.90
11079;DHT22;5592;49.234;7.268;2023-10-19T02:29:10;14.30;99.90
11079;DHT22;5592;49.234;7.268;2023-10-19T02:31:36;14.20;99.90
11079;DHT22;5592;49.234;7.268;2023-10-19T02:34:06;14.30;99.90
11079;DHT22;5592;49.234;7.268;2023-10-19T02:36:33;14.30;99.90
11079;DHT22;5592;49.234;7.268;2023-10-19T02:39:01;14.30;99.90
11079;DHT22;5592;49.234;7.268;2023-10-19T02:41:34;14.30;99.90
11079;DHT22;5592;49.234;7.268;2023-10-19T02:44:03;14.20;99.90
11079;DHT22;5592;49.234;7.268;2023-10-19T02:46:30;14.20;99.90
11079;DHT22;5592;49.234;7.268;2023-10-19T02:49:03;14.30;99.90
11079;DHT22;5592;49.234;7.268;2023-10-19T02:51:33;14.20;99.90
11079;DHT22;5592;49.234;7.268;2023-10-19T02:53:58;14.10;99.90
11079;DHT22;5592;49.234;7.268;2023-10-19T02:56:28;14.10;99.90
11079;DHT22;5592;49.234;7.268;2023-10-19T02:58:56;14.10;99.90
11079;DHT22;5592;49.234;7.268;2023-10-19T03:01:30;14.10;99.90
11079;DHT22;5592;49.234;7.268;2023-10-19T03:03:59;14.10;99.90
11079;DHT22;5592;49.234;7.268;2023-10-19T03:06:31;14.20;99.90
11079;DHT22;5592;49.234;7.268;2023-10-19T03:08:58;14.20;99.90
11079;DHT22;5592;49.234;7.268;2023-10-19T03:11:27;14.30;99.90
11079;DHT22;5592;49.234;7.268;2023-10-19T03:13:53;14.40;99.90
11079;DHT22;5592;49.234;7.268;2023-10-19T03:16:19;14.30;99.90
11079;DHT22;5592;49.234;7.268;2023-10-19T03:18:46;14.40;99.90
11079;DHT22;5592;49.234;7.268;2023-10-19T03:21:12;14.30;99.90
11079;DHT22;5592;49.234;7.268;2023-10-19T03:23:37;14.40;99.90
11079;DHT22;5592;49.234;7.268;2023-10-19T03:26:06;14.30;99.90
11079;DHT22;5592;49.234;7.268;2023-10-19T03:28:51;14.30;99.90
11079;DHT22;5592;49.234;7.268;2023-10-19T03:31:21;14.30;99.90
11079;DHT22;5592;49.234;7.268;2023-10-19T03:33:48;14.30;99.90
11079;DHT22;5592;49.234;7.268;2023-10-19T03:36:19;14.30;99.90
11079;DHT22;5592;49.234;7.268;2023-10-19T03:38:45;14.20;99.90
11079;DHT22;5592;49.234;7.268;2023-10-19T03:41:11;14.30;99.90
11079;DHT22;5592;49.234;7.268;2023-10-19T03:43:37;14.50;99.90
11079;DHT22;5592;49.234;7.268;2023-10-19T03:46:06;14.70;99.90
11079;DHT22;5592;49.234;7.268;2023-10-19T03:48:52;14.90;99.90
11079;DHT22;5592;49.234;7.268;2023-10-19T03:51:17;14.90;99.90
11079;DHT22;5592;49.234;7.268;2023-10-19T03:53:43;14.90;99.90
11079;DHT22;5592;49.234;7.268;2023-10-19T03:56:20;14.90;99.90
11079;DHT22;5592;49.234;7.268;2023-10-19T03:58:46;15.00;99.90
11079;DHT22;5592;49.234;7.268;2023-10-19T04:01:16;15.00;99.90
11079;DHT22;5592;49.234;7.268;2023-10-19T04:03:43;15.00;99.90
11079;DHT22;5592;49.234;7.268;2023-10-19T04:06:09;14.90;99.90
11079;DHT22;5592;49.234;7.268;2023-10-19T04:08:40;15.00;99.90
11079;DHT22;5592;49.234;7.268;2023-10-19T04:11:06;15.00;99.90
11079;DHT22;5592;49.234;7.268;2023-10-19T04:13:44;15.00;99.90
11079;DHT22;5592;49.234;7.268;2023-10-19T04:16:10;15.00;99.90
11079;DHT22;5592;49.234;7.268;2023-10-19T04:18:36;15.00;99.90
11079;DHT22;5592;49.234;7.268;2023-10-19T04:21:03;15.10;99.90
11079;DHT22;5592;49.234;7.268;2023-10-19T04:23:30;15.00;99.90
11079;DHT22;5592;49.234;7.268;2023-10-19T04:26:00;15.00;99.90
11079;DHT22;5592;49.234;7.268;2023-10-19T04:28:30;15.00;99.90
11079;DHT22;5592;49.234;7.268;2023-10-19T04:30:59;14.90;99.90
11079;DHT22;5592;49.234;7.268;2023-10-19T04:33:32;15.00;99.90
11079;DHT22;5592;49.234;7.268;2023-10-19T04:35:57;15.00;99.90
11079;DHT22;5592;49.234;7.268;2023-10-19T04:38:30;15.00;99.90
11079;DHT22;5592;49.234;7.268;2023-10-19T04:41:09;15.00;99.90
11079;DHT22;5592;49.234;7.268;2023-10-19T04:43:38;15.00;99.90
11079;DHT22;5592;49.234;7.268;2023-10-19T04:46:08;15.00;99.90
11079;DHT22;5592;49.234;7.268;2023-10-19T04:48:39;14.90;99.90
11079;DHT22;5592;49.234;7.268;2023-10-19T04:51:06;14.90;99.90
11079;DHT22;5592;49.234;7.268;2023-10-19T04:53:32;14.90;99.90
11079;DHT22;5592;49.234;7.268;2023-10-19T04:55:58;14.90;99.90
11079;DHT22;5592;49.234;7.268;2023-10-19T04:58:26;14.90;99.90
11079;DHT22;5592;49.234;7.268;2023-10-19T05:00:53;14.90;99.90
11079;DHT22;5592;49.234;7.268;2023-10-19T05:03:18;14.90;99.90
11079;DHT22;5592;49.234;7.268;2023-10-19T05:05:44;14.90;99.90
11079;DHT22;5592;49.234;7.268;2023-10-19T05:08:11;14.90;99.90
11079;DHT22;5592;49.234;7.268;2023-10-19T05:10:36;14.90;99.90
11079;DHT22;5592;49.234;7.268;2023-10-19T05:13:03;14.90;99.90
11079;DHT22;5592;49.234;7.268;2023-10-19T05:15:29;14.80;99.90
11079;DHT22;5592;49.234;7.268;2023-10-19T05:17:54;14.80;99.90
11079;DHT22;5592;49.234;7.268;2023-10-19T05:20:20;14.70;99.90
11079;DHT22;5592;49.234;7.268;2023-10-19T05:22:46;14.60;99.90
11079;DHT22;5592;49.234;7.268;2023-10-19T05:25:12;14.50;99.90
11079;DHT22;5592;49.234;7.268;2023-10-19T05:27:38;14.40;99.90
11079;DHT22;5592;49.234;7.268;2023-10-19T05:30:05;14.50;99.90
11079;DHT22;5592;49.234;7.268;2023-10-19T05:32:31;14.50;99.90
11079;DHT22;5592;49.234;7.268;2023-10-19T05:34:57;14.40;99.90
11079;DHT22;5592;49.234;7.268;2023-10-19T05:37:23;14.30;99.90
11079;DHT22;5592;49.234;7.268;2023-10-19T05:39:48;14.20;99.90
11079;DHT22;5592;49.234;7.268;2023-10-19T05:42:17;14.20;99.90
11079;DHT22;5592;49.234;7.268;2023-10-19T05:44:43;14.20;99.90
11079;DHT22;5592;49.234;7.268;2023-10-19T05:47:08;14.10;99.90
11079;DHT22;5592;49.234;7.268;2023-10-19T05:49:34;13.90;99.90
11079;DHT22;5592;49.234;7.268;2023-10-19T05:52:00;13.90;99.90
11079;DHT22;5592;49.234;7.268;2023-10-19T05:54:26;13.80;99.90
11079;DHT22;5592;49.234;7.268;2023-10-19T05:56:52;13.70;99.90
11079;DHT22;5592;49.234;7.268;2023-10-19T05:59:19;13.60;99.90
11079;DHT22;5592;49.234;7.268;2023-10-19T06:01:45;13.40;99.90
11079;DHT22;5592;49.234;7.268;2023-10-19T06:04:13;13.20;99.90
11079;DHT22;5592;49.234;7.268;2023-10-19T06:06:39;13.10;99.90
11079;DHT22;5592;49.234;7.268;2023-10-19T06:09:06;13.10;99.90
11079;DHT22;5592;49.234;7.268;2023-10-19T06:11:34;13.00;99.90
11079;DHT22;5592;49.234;7.268;2023-10-19T06:14:05;13.00;99.90
11079;DHT22;5592;49.234;7.268;2023-10-19T06:16:35;12.90;99.90
11079;DHT22;5592;49.234;7.268;2023-10-19T06:19:00;12.90;99.90
11079;DHT22;5592;49.234;7.268;2023-10-19T06:21:26;12.90;99.90
11079;DHT22;5592;49.234;7.268;2023-10-19T06:23:51;12.90;99.90
11079;DHT22;5592;49.234;7.268;2023-10-19T06:26:19;13.00;99.90
11079;DHT22;5592;49.234;7.268;2023-10-19T06:28:44;13.00;99.90
11079;DHT22;5592;49.234;7.268;2023-10-19T06:31:10;13.00;99.90
11079;DHT22;5592;49.234;7.268;2023-10-19T06:33:36;13.10;99.90
11079;DHT22;5592;49.234;7.268;2023-10-19T06:36:06;13.10;99.90
11079;DHT22;5592;49.234;7.268;2023-10-19T06:38:32;13.20;99.90
11079;DHT22;5592;49.234;7.268;2023-10-19T06:40:59;13.20;99.90
11079;DHT22;5592;49.234;7.268;2023-10-19T06:43:25;13.30;99.90
11079;DHT22;5592;49.234;7.268;2023-10-19T06:45:55;13.30;99.90
11079;DHT22;5592;49.234;7.268;2023-10-19T06:48:22;13.40;99.90
11079;DHT22;5592;49.234;7.268;2023-10-19T06:50:50;13.40;99.90
11079;DHT22;5592;49.234;7.268;2023-10-19T06:53:16;13.40;99.90
11079;DHT22;5592;49.234;7.268;2023-10-19T06:55:42;13.50;99.90
11079;DHT22;5592;49.234;7.268;2023-10-19T06:58:09;13.50;99.90
11079;DHT22;5592;49.234;7.268;2023-10-19T07:00:34;13.50;99.90
11079;DHT22;5592;49.234;7.268;2023-10-19T07:03:02;13.50;99.90
11079;DHT22;5592;49.234;7.268;2023-10-19T07:05:28;13.50;99.90
11079;DHT22;5592;49.234;7.268;2023-10-19T07:07:57;13.60;99.90
11079;DHT22;5592;49.234;7.268;2023-10-19T07:10:25;13.60;99.90
11079;DHT22;5592;49.234;7.268;2023-10-19T07:12:54;13.70;99.90
11079;DHT22;5592;49.234;7.268;2023-10-19T07:15:20;13.70;99.90
11079;DHT22;5592;49.234;7.268;2023-10-19T07:17:48;13.80;99.90
11079;DHT22;5592;49.234;7.268;2023-10-19T07:20:16;13.90;99.90
11079;DHT22;5592;49.234;7.268;2023-10-19T07:22:53;14.10;99.90
11079;DHT22;5592;49.234;7.268;2023-10-19T07:25:20;14.20;99.90
11079;DHT22;5592;49.234;7.268;2023-10-19T07:30:22;14.50;99.90
11079;DHT22;5592;49.234;7.268;2023-10-19T07:32:52;14.70;99.90
11079;DHT22;5592;49.234;7.268;2023-10-19T07:35:25;14.80;99.90
11079;DHT22;5592;49.234;7.268;2023-10-19T07:37:54;15.00;99.90
11079;DHT22;5592;49.234;7.268;2023-10-19T07:40:24;15.20;99.90
11079;DHT22;5592;49.234;7.268;2023-10-19T07:42:51;15.50;99.90
11079;DHT22;5592;49.234;7.268;2023-10-19T07:45:19;15.90;99.90
11079;DHT22;5592;49.234;7.268;2023-10-19T07:47:45;16.80;99.90
11079;DHT22;5592;49.234;7.268;2023-10-19T07:50:12;17.40;99.90
11079;DHT22;5592;49.234;7.268;2023-10-19T07:52:50;17.60;99.90
11079;DHT22;5592;49.234;7.268;2023-10-19T07:55:17;17.80;99.90
11079;DHT22;5592;49.234;7.268;2023-10-19T07:57:44;18.10;99.90
11079;DHT22;5592;49.234;7.268;2023-10-19T08:00:11;18.20;99.90
11079;DHT22;5592;49.234;7.268;2023-10-19T08:02:40;18.30;99.90
11079;DHT22;5592;49.234;7.268;2023-10-19T08:05:16;18.40;99.90
11079;DHT22;5592;49.234;7.268;2023-10-19T08:07:46;18.70;99.90
11079;DHT22;5592;49.234;7.268;2023-10-19T08:10:15;19.00;99.90
11079;DHT22;5592;49.234;7.268;2023-10-19T08:12:41;19.10;99.90
11079;DHT22;5592;49.234;7.268;2023-10-19T08:15:15;19.30;99.90
11079;DHT22;5592;49.234;7.268;2023-10-19T08:17:42;20.10;99.90
11079;DHT22;5592;49.234;7.268;2023-10-19T08:20:09;21.40;99.90
11079;DHT22;5592;49.234;7.268;2023-10-19T08:22:42;23.30;99.90
11079;DHT22;5592;49.234;7.268;2023-10-19T08:25:08;24.30;99.90
11079;DHT22;5592;49.234;7.268;2023-10-19T08:27:43;24.50;99.90
11079;DHT22;5592;49.234;7.268;2023-10-19T08:30:19;24.20;99.90
11079;DHT22;5592;49.234;7.268;2023-10-19T08:32:46;23.40;99.90
11079;DHT22;5592;49.234;7.268;2023-10-19T08:35:19;22.50;99.90
11079;DHT22;5592;49.234;7.268;2023-10-19T08:37:55;21.90;99.90
11079;DHT22;5592;49.234;7.268;2023-10-19T08:40:25;21.50;99.90
11079;DHT22;5592;49.234;7.268;2023-10-19T08:42:53;21.00;99.90
11079;DHT22;5592;49.234;7.268;2023-10-19T08:45:19;20.50;99.90
11079;DHT22;5592;49.234;7.268;2023-10-19T08:47:53;20.20;99.90
11079;DHT22;5592;49.234;7.268;2023-10-19T08:50:23;19.80;99.90
11079;DHT22;5592;49.234;7.268;2023-10-19T08:52:53;19.80;99.90
11079;DHT22;5592;49.234;7.268;2023-10-19T08:55:20;19.90;99.90
11079;DHT22;5592;49.234;7.268;2023-10-19T08:57:48;20.10;99.90
11079;DHT22;5592;49.234;7.268;2023-10-19T09:00:15;20.50;99.90
11079;DHT22;5592;49.234;7.268;2023-10-19T09:02:47;21.50;99.90
11079;DHT22;5592;49.234;7.268;2023-10-19T09:05:14;22.20;99.90
11079;DHT22;5592;49.234;7.268;2023-10-19T09:07:47;22.50;99.90
11079;DHT22;5592;49.234;7.268;2023-10-19T09:10:23;22.20;99.90
11079;DHT22;5592;49.234;7.268;2023-10-19T09:13:01;22.30;99.90
11079;DHT22;5592;49.234;7.268;2023-10-19T09:15:27;22.30;99.90
11079;DHT22;5592;49.234;7.268;2023-10-19T09:18:20;22.90;99.90
11079;DHT22;5592;49.234;7.268;2023-10-19T09:20:51;24.20;99.90
11079;DHT22;5592;49.234;7.268;2023-10-19T09:23:27;24.60;99.90
11079;DHT22;5592;49.234;7.268;2023-10-19T09:25:57;24.70;99.90
11079;DHT22;5592;49.234;7.268;2023-10-19T09:28:23;24.50;99.90
11079;DHT22;5592;49.234;7.268;2023-10-19T09:30:52;24.40;99.90
11079;DHT22;5592;49.234;7.268;2023-10-19T09:33:17;24.40;99.90
11079;DHT22;5592;49.234;7.268;2023-10-19T09:35:50;24.20;99.90
11079;DHT22;5592;49.234;7.268;2023-10-19T09:38:19;24.40;99.90
11079;DHT22;5592;49.234;7.268;2023-10-19T09:40:49;24.60;99.90
11079;DHT22;5592;49.234;7.268;2023-10-19T09:43:16;24.70;99.90
11079;DHT22;5592;49.234;7.268;2023-10-19T09:45:48;24.80;99.90
11079;DHT22;5592;49.234;7.268;2023-10-19T09:48:18;24.70;99.90
11079;DHT22;5592;49.234;7.268;2023-10-19T09:50:51;24.50;99.90
11079;DHT22;5592;49.234;7.268;2023-10-19T09:53:29;24.10;99.90
11079;DHT22;5592;49.234;7.268;2023-10-19T09:55:59;23.60;99.90
11079;DHT22;5592;49.234;7.268;2023-10-19T09:58:47;23.30;99.90
11079;DHT22;5592;49.234;7.268;2023-10-19T10:01:20;23.00;99.90
11079;DHT22;5592;49.234;7.268;2023-10-19T10:03:53;22.60;99.90
11079;DHT22;5592;49.234;7.268;2023-10-19T10:09:20;22.00;99.90
11079;DHT22;5592;49.234;7.268;2023-10-19T10:11:52;21.80;99.90
11079;DHT22;5592;49.234;7.268;2023-10-19T10:14:23;21.10;99.90
11079;DHT22;5592;49.234;7.268;2023-10-19T10:17:03;20.80;99.90
11079;DHT22;5592;49.234;7.268;2023-10-19T10:19:30;20.20;99.90
11079;DHT22;5592;49.234;7.268;2023-10-19T10:22:10;20.00;99.90
11079;DHT22;5592;49.234;7.268;2023-10-19T10:24:43;19.70;99.90
11079;DHT22;5592;49.234;7.268;2023-10-19T10:27:09;19.20;99.90
11079;DHT22;5592;49.234;7.268;2023-10-19T10:29:36;19.10;99.90
11079;DHT22;5592;49.234;7.268;2023-10-19T10:32:02;19.00;99.90
11079;DHT22;5592;49.234;7.268;2023-10-19T10:37:07;18.60;99.90
11079;DHT22;5592;49.234;7.268;2023-10-19T10:39:35;18.30;99.90
11079;DHT22;5592;49.234;7.268;2023-10-19T10:42:09;18.20;99.90
11079;DHT22;5592;49.234;7.268;2023-10-19T10:47:21;17.80;99.90
11079;DHT22;5592;49.234;7.268;2023-10-19T10:50:20;17.70;99.90
11079;DHT22;5592;49.234;7.268;2023-10-19T10:52:47;17.50;99.90
11079;DHT22;5592;49.234;7.268;2023-10-19T10:55:17;17.40;99.90
11079;DHT22;5592;49.234;7.268;2023-10-19T10:57:45;17.10;99.90
11079;DHT22;5592;49.234;7.268;2023-10-19T11:00:16;17.00;99.90
11079;DHT22;5592;49.234;7.268;2023-10-19T11:05:33;16.90;99.90
11079;DHT22;5592;49.234;7.268;2023-10-19T11:08:07;16.90;99.90
11079;DHT22;5592;49.234;7.268;2023-10-19T11:10:35;16.90;99.90
11079;DHT22;5592;49.234;7.268;2023-10-19T11:15:30;17.10;99.90
11079;DHT22;5592;49.234;7.268;2023-10-19T11:17:55;17.40;99.90
11079;DHT22;5592;49.234;7.268;2023-10-19T11:20:24;17.60;99.90
11079;DHT22;5592;49.234;7.268;2023-10-19T11:22:51;17.80;99.90
11079;DHT22;5592;49.234;7.268;2023-10-19T11:25:19;17.80;99.90
11079;DHT22;5592;49.234;7.268;2023-10-19T11:27:45;17.80;99.90
11079;DHT22;5592;49.234;7.268;2023-10-19T11:30:11;17.70;99.90
11079;DHT22;5592;49.234;7.268;2023-10-19T11:32:38;17.60;99.90
11079;DHT22;5592;49.234;7.268;2023-10-19T11:35:05;17.50;99.90
11079;DHT22;5592;49.234;7.268;2023-10-19T11:37:53;17.50;99.90
11079;DHT22;5592;49.234;7.268;2023-10-19T11:40:28;17.60;99.90
11079;DHT22;5592;49.234;7.268;2023-10-19T11:42:54;17.70;99.90
11079;DHT22;5592;49.234;7.268;2023-10-19T11:45:22;17.90;99.90
11079;DHT22;5592;49.234;7.268;2023-10-19T11:47:49;18.20;99.90
11079;DHT22;5592;49.234;7.268;2023-10-19T11:50:16;18.40;99.90
11079;DHT22;5592;49.234;7.268;2023-10-19T11:52:44;18.70;99.90
11079;DHT22;5592;49.234;7.268;2023-10-19T11:55:11;19.00;99.90
11079;DHT22;5592;49.234;7.268;2023-10-19T11:57:42;19.10;99.90
11079;DHT22;5592;49.234;7.268;2023-10-19T12:00:10;19.10;99.90
11079;DHT22;5592;49.234;7.268;2023-10-19T12:02:39;19.00;99.90
11079;DHT22;5592;49.234;7.268;2023-10-19T12:05:07;19.00;99.90
11079;DHT22;5592;49.234;7.268;2023-10-19T12:07:39;18.80;99.90
11079;DHT22;5592;49.234;7.268;2023-10-19T12:10:07;18.60;99.90
11079;DHT22;5592;49.234;7.268;2023-10-19T12:12:33;18.50;99.90
11079;DHT22;5592;49.234;7.268;2023-10-19T12:14:59;18.40;99.90
11079;DHT22;5592;49.234;7.268;2023-10-19T12:17:25;18.30;99.90
11079;DHT22;5592;49.234;7.268;2023-10-19T12:19:53;18.30;99.90
11079;DHT22;5592;49.234;7.268;2023-10-19T12:22:19;18.30;99.90
11079;DHT22;5592;49.234;7.268;2023-10-19T12:24:46;18.00;99.90
11079;DHT22;5592;49.234;7.268;2023-10-19T12:27:13;17.90;99.90
11079;DHT22;5592;49.234;7.268;2023-10-19T12:29:39;17.80;99.90
11079;DHT22;5592;49.234;7.268;2023-10-19T12:32:08;17.60;99.90
11079;DHT22;5592;49.234;7.268;2023-10-19T12:34:35;17.50;99.90
11079;DHT22;5592;49.234;7.268;2023-10-19T12:37:00;17.50;99.90
11079;DHT22;5592;49.234;7.268;2023-10-19T12:39:27;17.50;99.90
11079;DHT22;5592;49.234;7.268;2023-10-19T12:42:22;17.40;99.90
11079;DHT22;5592;49.234;7.268;2023-10-19T12:44:48;17.40;99.90
11079;DHT22;5592;49.234;7.268;2023-10-19T12:47:14;17.40;99.90
11079;DHT22;5592;49.234;7.268;2023-10-19T12:49:40;17.40;99.90
11079;DHT22;5592;49.234;7.268;2023-10-19T12:52:07;17.30;99.90
11079;DHT22;5592;49.234;7.268;2023-10-19T12:54:34;17.30;99.90
11079;DHT22;5592;49.234;7.268;2023-10-19T12:57:06;17.20;99.90
11079;DHT22;5592;49.234;7.268;2023-10-19T12:59:36;17.20;99.90
11079;DHT22;5592;49.234;7.268;2023-10-19T13:02:07;17.20;99.90
11079;DHT22;5592;49.234;7.268;2023-10-19T13:04:40;17.20;99.90
11079;DHT22;5592;49.234;7.268;2023-10-19T13:07:07;17.10;99.90
11079;DHT22;5592;49.234;7.268;2023-10-19T13:09:33;17.10;99.90
11079;DHT22;5592;49.234;7.268;2023-10-19T13:12:01;17.00;99.90
11079;DHT22;5592;49.234;7.268;2023-10-19T13:14:27;16.90;99.90
11079;DHT22;5592;49.234;7.268;2023-10-19T13:16:53;16.80;99.90
11079;DHT22;5592;49.234;7.268;2023-10-19T13:19:22;16.80;99.90
11079;DHT22;5592;49.234;7.268;2023-10-19T13:21:52;16.70;99.90
11079;DHT22;5592;49.234;7.268;2023-10-19T13:24:20;16.70;99.90
11079;DHT22;5592;49.234;7.268;2023-10-19T13:26:47;16.80;99.90
11079;DHT22;5592;49.234;7.268;2023-10-19T13:29:13;16.70;99.90
11079;DHT22;5592;49.234;7.268;2023-10-19T13:31:40;16.70;99.90
11079;DHT22;5592;49.234;7.268;2023-10-19T13:34:06;16.70;99.90
11079;DHT22;5592;49.234;7.268;2023-10-19T13:36:36;16.70;99.90
11079;DHT22;5592;49.234;7.268;2023-10-19T13:39:02;16.70;99.90
11079;DHT22;5592;49.234;7.268;2023-10-19T13:41:28;16.80;99.90
11079;DHT22;5592;49.234;7.268;2023-10-19T13:43:54;16.90;99.90
11079;DHT22;5592;49.234;7.268;2023-10-19T13:46:20;16.90;99.90
11079;DHT22;5592;49.234;7.268;2023-10-19T13:48:49;17.00;99.90
11079;DHT22;5592;49.234;7.268;2023-10-19T13:51:16;17.10;99.90
11079;DHT22;5592;49.234;7.268;2023-10-19T13:53:44;17.20;99.90
11079;DHT22;5592;49.234;7.268;2023-10-19T13:56:11;17.40;99.90
11079;DHT22;5592;49.234;7.268;2023-10-19T13:58:36;17.40;99.90
11079;DHT22;5592;49.234;7.268;2023-10-19T14:01:06;17.20;99.90
11079;DHT22;5592;49.234;7.268;2023-10-19T14:03:32;17.20;99.90
11079;DHT22;5592;49.234;7.268;2023-10-19T14:05:57;17.30;99.90
11079;DHT22;5592;49.234;7.268;2023-10-19T14:08:23;17.40;99.90
11079;DHT22;5592;49.234;7.268;2023-10-19T14:10:48;17.60;99.90
11079;DHT22;5592;49.234;7.268;2023-10-19T14:13:14;17.60;99.90
11079;DHT22;5592;49.234;7.268;2023-10-19T14:15:40;17.80;99.90
11079;DHT22;5592;49.234;7.268;2023-10-19T14:18:07;17.90;99.90
11079;DHT22;5592;49.234;7.268;2023-10-19T14:20:33;18.00;99.90
11079;DHT22;5592;49.234;7.268;2023-10-19T14:23:00;18.10;99.90
11079;DHT22;5592;49.234;7.268;2023-10-19T14:25:26;18.20;99.90
11079;DHT22;5592;49.234;7.268;2023-10-19T14:27:54;18.20;99.90
11079;DHT22;5592;49.234;7.268;2023-10-19T14:30:25;18.20;99.90
11079;DHT22;5592;49.234;7.268;2023-10-19T14:32:51;18.00;99.90
11079;DHT22;5592;49.234;7.268;2023-10-19T14:35:21;18.00;99.90
11079;DHT22;5592;49.234;7.268;2023-10-19T14:37:49;17.90;99.90
11079;DHT22;5592;49.234;7.268;2023-10-19T14:40:25;18.00;99.90
11079;DHT22;5592;49.234;7.268;2023-10-19T14:42:55;17.90;99.90
11079;DHT22;5592;49.234;7.268;2023-10-19T14:45:24;17.70;99.90
11079;DHT22;5592;49.234;7.268;2023-10-19T14:47:59;17.50;99.90
11079;DHT22;5592;49.234;7.268;2023-10-19T14:50:25;17.30;99.90
11079;DHT22;5592;49.234;7.268;2023-10-19T14:52:53;17.30;99.90
11079;DHT22;5592;49.234;7.268;2023-10-19T14:55:20;17.10;99.90
11079;DHT22;5592;49.234;7.268;2023-10-19T14:57:48;16.80;99.90
11079;DHT22;5592;49.234;7.268;2023-10-19T15:00:22;16.60;99.90
11079;DHT22;5592;49.234;7.268;2023-10-19T15:02:49;16.50;99.90
11079;DHT22;5592;49.234;7.268;2023-10-19T15:05:18;16.40;99.90
11079;DHT22;5592;49.234;7.268;2023-10-19T15:07:49;16.30;99.90
11079;DHT22;5592;49.234;7.268;2023-10-19T15:10:20;16.30;99.90
11079;DHT22;5592;49.234;7.268;2023-10-19T15:12:46;16.30;99.90
11079;DHT22;5592;49.234;7.268;2023-10-19T15:15:11;16.20;99.90
11079;DHT22;5592;49.234;7.268;2023-10-19T15:17:38;16.20;99.90
11079;DHT22;5592;49.234;7.268;2023-10-19T15:20:08;16.30;99.90
11079;DHT22;5592;49.234;7.268;2023-10-19T15:22:44;16.40;99.90
11079;DHT22;5592;49.234;7.268;2023-10-19T15:25:11;16.30;99.90
11079;DHT22;5592;49.234;7.268;2023-10-19T15:27:39;16.30;99.90
11079;DHT22;5592;49.234;7.268;2023-10-19T15:30:05;16.20;99.90
11079;DHT22;5592;49.234;7.268;2023-10-19T15:32:35;16.30;99.90
11079;DHT22;5592;49.234;7.268;2023-10-19T15:35:02;16.20;99.90
11079;DHT22;5592;49.234;7.268;2023-10-19T15:37:28;16.20;99.90
11079;DHT22;5592;49.234;7.268;2023-10-19T15:39:53;16.10;99.90
11079;DHT22;5592;49.234;7.268;2023-10-19T15:42:19;16.10;99.90
11079;DHT22;5592;49.234;7.268;2023-10-19T15:44:50;16.10;99.90
11079;DHT22;5592;49.234;7.268;2023-10-19T15:47:17;16.10;99.90
11079;DHT22;5592;49.234;7.268;2023-10-19T15:49:54;16.00;99.90
11079;DHT22;5592;49.234;7.268;2023-10-19T15:52:24;15.90;99.90
11079;DHT22;5592;49.234;7.268;2023-10-19T15:54:51;15.90;99.90
11079;DHT22;5592;49.234;7.268;2023-10-19T15:57:17;15.90;99.90
11079;DHT22;5592;49.234;7.268;2023-10-19T15:59:44;15.90;99.90
11079;DHT22;5592;49.234;7.268;2023-10-19T16:02:10;15.90;99.90
11079;DHT22;5592;49.234;7.268;2023-10-19T16:04:37;15.80;99.90
11079;DHT22;5592;49.234;7.268;2023-10-19T16:07:03;15.80;99.90
11079;DHT22;5592;49.234;7.268;2023-10-19T16:09:28;15.80;99.90
11079;DHT22;5592;49.234;7.268;2023-10-19T16:11:55;15.80;99.90